Time,TemperatureF,DewpointF,PressureIn,WindDirection,WindDirectionDegrees,WindSpeedMPH,WindSpeedGustMPH,Humidity,HourlyPrecipIn,Conditions,Clouds,dailyrainin,SoftwareType,DateUTC
2013-07-16 00:00:00,49.0,-99.9,44.89,North,-999,-999.0,-999.0,-999,-99.99,,,0.00,,2013-07-16 07:00:00,
2013-07-16 01:00:00,50.0,-99.9,44.89,WNW,303,0.0,2.0,-999,-99.99,,,0.00,,2013-07-16 08:00:00,
2013-07-16 01:52:00,50.0,-99.9,44.89,WNW,303,0.0,2.0,-999,-99.99,,,0.00,,2013-07-16 08:52:00,
2013-07-16 02:00:00,50.0,-99.9,44.89,WSW,249,1.0,2.0,-999,-99.99,,,0.00,,2013-07-16 09:00:00,
2013-07-16 03:00:00,51.0,-99.9,44.89,SW,232,1.0,2.0,-999,-99.99,,,0.00,,2013-07-16 10:00:00,
2013-07-16 03:52:00,51.0,-99.9,44.89,SW,232,1.0,2.0,-999,-99.99,,,0.00,,2013-07-16 10:52:00,
2013-07-16 04:00:00,51.0,-99.9,44.89,SW,227,0.0,2.0,-999,-99.99,,,-99.99,,2013-07-16 11:00:00,
2013-07-16 04:53:00,51.0,-99.9,44.89,SW,227,0.0,2.0,-999,-99.99,,,-99.99,,2013-07-16 11:53:00,
2013-07-16 05:00:00,50.0,-99.9,44.89,WSW,256,0.0,2.0,-999,-99.99,,,0.00,,2013-07-16 12:00:00,
2013-07-16 06:00:00,50.0,-99.9,44.89,WSW,255,0.0,2.0,-999,-99.99,,,0.00,,2013-07-16 13:00:00,
2013-07-16 07:00:00,52.0,-99.9,44.89,South,177,0.0,2.0,-999,-99.99,,,0.00,,2013-07-16 14:00:00,
2013-07-16 08:00:00,56.0,-99.9,44.89,South,177,0.0,4.0,-999,-99.99,,,0.00,,2013-07-16 15:00:00,
2013-07-16 09:00:00,57.0,-99.9,44.89,NNW,327,1.0,4.0,-999,-99.99,,,0.00,,2013-07-16 16:00:00,
2013-07-16 10:00:00,56.0,-99.9,44.89,West,275,1.0,4.0,-999,-99.99,,,0.00,,2013-07-16 17:00:00,
2013-07-16 11:00:00,54.0,-99.9,44.89,SW,214,1.0,5.0,-999,-99.99,,,0.00,,2013-07-16 18:00:00,
2013-07-16 12:00:00,49.0,-99.9,-100.00,WNW,290,1.0,6.0,-999,-99.99,,,0.01,,2013-07-16 19:00:00,
2013-07-16 13:00:00,50.0,-99.9,44.89,North,-999,-999.0,-999.0,-999,-99.99,,,0.01,,2013-07-16 20:00:00,
2013-07-16 14:00:00,52.0,-99.9,44.89,WSW,245,0.0,2.0,-999,-99.99,,,0.01,,2013-07-16 21:00:00,
2013-07-16 15:00:00,52.0,-99.9,44.89,WSW,238,1.0,2.0,-999,-99.99,,,0.01,,2013-07-16 22:00:00,
2013-07-16 16:00:00,54.0,-99.9,44.89,WSW,238,1.0,7.0,-999,-99.99,,,-99.99,,2013-07-16 23:00:00,
2013-07-16 17:00:00,53.0,-99.9,44.89,SSW,202,1.0,6.0,-999,-99.99,,,0.01,,2013-07-17 00:00:00,
2013-07-16 17:52:00,53.0,-99.9,44.89,SSW,202,1.0,6.0,-999,-99.99,,,0.01,,2013-07-17 00:52:00,
2013-07-16 18:00:00,52.0,-99.9,44.89,SW,215,1.0,4.0,-999,-99.99,,,0.01,,2013-07-17 01:00:00,
2013-07-16 18:53:00,52.0,-99.9,-100.00,SW,215,1.0,4.0,-999,-99.99,,,0.01,,2013-07-17 01:53:00,
2013-07-16 19:00:00,51.0,-99.9,44.89,WSW,242,0.0,2.0,-999,-99.99,,,0.01,,2013-07-17 02:00:00,
2013-07-16 19:53:00,51.0,-99.9,44.89,WSW,242,0.0,2.0,-999,-99.99,,,0.01,,2013-07-17 02:53:00,
2013-07-16 20:00:00,50.0,-99.9,44.89,WSW,237,1.0,3.0,-999,-99.99,,,0.01,,2013-07-17 03:00:00,
2013-07-16 20:53:00,50.0,-99.9,-100.00,WSW,237,1.0,3.0,-999,-99.99,,,0.01,,2013-07-17 03:53:00,
2013-07-16 21:00:00,51.0,-99.9,44.89,SW,217,1.0,3.0,-999,-99.99,,,0.01,,2013-07-17 04:00:00,
2013-07-16 22:00:00,50.0,-99.9,44.89,SSW,205,1.0,3.0,-999,-99.99,,,0.01,,2013-07-17 05:00:00,
2013-07-16 23:00:00,48.0,-99.9,44.89,SW,230,0.0,2.0,-999,-99.99,,,0.01,,2013-07-17 06:00:00,